createdAt,value
2022-07-31T00:00:53.702Z,2.90
2022-07-31T00:03:22.209Z,3.20
2022-07-31T00:05:50.743Z,3.58
2022-07-31T00:08:19.226Z,3.70
2022-07-31T00:10:47.701Z,3.47
2022-07-31T00:13:16.213Z,3.67
2022-07-31T00:15:44.701Z,3.28
2022-07-31T00:18:14.577Z,4.18
2022-07-31T00:20:44.428Z,3.65
2022-07-31T00:23:13.427Z,3.80
2022-07-31T00:25:47.720Z,3.90
2022-07-31T00:28:16.189Z,4.18
2022-07-31T00:30:44.666Z,3.42
2022-07-31T00:33:15.942Z,4.15
2022-07-31T00:35:44.428Z,2.67
2022-07-31T00:38:28.338Z,4.05
2022-07-31T00:40:57.245Z,3.70
2022-07-31T00:43:29.997Z,3.50
2022-07-31T00:45:59.608Z,3.60
2022-07-31T00:48:29.739Z,2.60
2022-07-31T00:50:58.533Z,3.15
2022-07-31T00:53:27.158Z,2.97
2022-07-31T00:55:57.516Z,3.22
2022-07-31T00:58:26.384Z,2.90
2022-07-31T01:00:54.924Z,2.90
2022-07-31T01:03:23.493Z,3.17
2022-07-31T01:05:53.338Z,3.03
2022-07-31T01:08:21.855Z,3.13
2022-07-31T01:10:57.225Z,3.17
2022-07-31T01:13:32.814Z,3.60
2022-07-31T01:16:04.541Z,3.60
2022-07-31T01:18:36.571Z,3.50
2022-07-31T01:21:09.875Z,3.70
2022-07-31T01:24:16.095Z,3.63
2022-07-31T01:27:05.897Z,4.70
2022-07-31T01:29:40.956Z,4.95
2022-07-31T01:32:12.162Z,4.40
2022-07-31T01:34:45.599Z,4.50
2022-07-31T01:37:24.315Z,4.97
2022-07-31T01:39:57.442Z,4.47
2022-07-31T01:42:27.000Z,4.93
2022-07-31T01:45:01.490Z,4.47
2022-07-31T01:47:34.240Z,4.85
2022-07-31T01:50:05.617Z,5.13
2022-07-31T01:52:35.482Z,5.20
2022-07-31T01:55:05.658Z,4.57
2022-07-31T01:57:36.519Z,4.47
2022-07-31T02:00:14.878Z,4.90
2022-07-31T02:03:07.674Z,4.82
2022-07-31T02:05:41.867Z,5.28
2022-07-31T02:08:12.612Z,4.80
2022-07-31T02:10:46.158Z,4.95
2022-07-31T02:13:17.974Z,5.82
2022-07-31T02:15:49.610Z,4.68
2022-07-31T02:18:23.329Z,5.03
2022-07-31T02:21:12.315Z,4.88
2022-07-31T02:23:40.828Z,5.03
2022-07-31T02:26:10.145Z,5.18
2022-07-31T02:28:43.089Z,4.85
2022-07-31T02:31:15.176Z,5.00
2022-07-31T02:33:48.186Z,5.13
2022-07-31T02:36:19.949Z,5.57
2022-07-31T02:38:49.945Z,5.28
2022-07-31T02:41:20.190Z,5.65
2022-07-31T02:43:49.088Z,5.70
2022-07-31T02:46:23.413Z,5.63
2022-07-31T02:48:53.521Z,5.38
2022-07-31T02:51:24.801Z,6.28
2022-07-31T02:53:54.824Z,6.15
2022-07-31T02:56:26.554Z,6.95
2022-07-31T02:58:55.946Z,4.97
2022-07-31T03:01:29.159Z,6.18
2022-07-31T03:03:58.365Z,6.35
2022-07-31T03:06:29.762Z,6.07
2022-07-31T03:08:58.594Z,6.55
2022-07-31T03:11:27.307Z,6.07
2022-07-31T03:13:58.362Z,5.28
2022-07-31T03:16:29.441Z,6.68
2022-07-31T03:18:59.544Z,6.78
2022-07-31T03:21:28.804Z,6.25
2022-07-31T03:23:58.045Z,6.28
2022-07-31T03:26:27.099Z,6.22
2022-07-31T03:28:55.807Z,6.25
2022-07-31T03:31:24.340Z,6.30
2022-07-31T03:33:54.252Z,6.40
2022-07-31T03:36:22.927Z,6.15
2022-07-31T03:38:51.597Z,6.07
2022-07-31T03:41:31.806Z,6.40
2022-07-31T03:44:00.962Z,5.32
2022-07-31T03:46:30.629Z,6.32
2022-07-31T03:49:01.250Z,5.70
2022-07-31T03:51:30.798Z,5.78
2022-07-31T03:54:00.041Z,5.47
2022-07-31T03:56:52.530Z,5.05
2022-07-31T03:59:22.106Z,4.90
2022-07-31T04:02:10.268Z,5.75
2022-07-31T04:04:45.187Z,5.40
2022-07-31T04:07:13.688Z,5.78
2022-07-31T04:09:43.012Z,6.20
2022-07-31T04:12:13.379Z,5.03
2022-07-31T04:14:41.915Z,5.15
2022-07-31T04:17:10.844Z,5.32
2022-07-31T04:19:39.537Z,5.05
2022-07-31T04:22:09.740Z,5.85
2022-07-31T04:24:39.551Z,5.80
2022-07-31T04:27:23.483Z,5.85
2022-07-31T04:29:54.859Z,6.38
2022-07-31T04:32:24.173Z,5.80
2022-07-31T04:34:59.384Z,5.18
2022-07-31T04:37:29.243Z,6.32
2022-07-31T04:39:58.617Z,5.40
2022-07-31T04:42:27.132Z,5.97
2022-07-31T04:45:01.516Z,6.18
2022-07-31T04:47:31.616Z,6.18
2022-07-31T04:50:00.276Z,5.93
2022-07-31T04:52:30.059Z,6.40
2022-07-31T04:55:05.047Z,7.20
2022-07-31T04:57:33.776Z,6.90
2022-07-31T05:00:03.348Z,7.40
2022-07-31T05:02:34.559Z,7.35
2022-07-31T05:05:03.436Z,7.60
2022-07-31T05:07:36.600Z,7.57
2022-07-31T05:10:34.310Z,7.28
2022-07-31T05:13:03.475Z,6.80
2022-07-31T05:15:33.783Z,7.18
2022-07-31T05:18:02.275Z,5.97
2022-07-31T05:20:50.444Z,6.10
2022-07-31T05:23:30.437Z,6.03
2022-07-31T05:26:25.470Z,6.28
2022-07-31T05:28:58.594Z,6.32
2022-07-31T05:31:28.811Z,6.93
2022-07-31T05:33:59.246Z,7.43
2022-07-31T05:36:28.115Z,7.82
2022-07-31T05:38:57.930Z,8.55
2022-07-31T05:41:41.826Z,8.65
2022-07-31T05:44:28.656Z,9.60
2022-07-31T05:49:26.853Z,10.15
2022-07-31T05:51:57.342Z,10.75
2022-07-31T05:54:27.164Z,11.52
2022-07-31T05:57:33.350Z,11.40
2022-07-31T06:00:04.047Z,10.88
2022-07-31T06:02:40.570Z,10.80
2022-07-31T06:05:28.010Z,11.15
2022-07-31T06:07:56.610Z,10.20
2022-07-31T06:10:27.006Z,9.63
2022-07-31T06:12:56.397Z,8.38
2022-07-31T06:15:26.059Z,8.82
2022-07-31T06:17:54.853Z,8.77
2022-07-31T06:20:30.748Z,7.68
2022-07-31T06:23:00.017Z,8.52
2022-07-31T06:25:37.365Z,8.90
2022-07-31T06:28:10.359Z,9.98
2022-07-31T06:30:40.833Z,10.00
2022-07-31T06:33:09.431Z,11.15
2022-07-31T06:35:48.761Z,10.15
2022-07-31T06:38:43.655Z,10.82
2022-07-31T06:41:48.252Z,10.90
2022-07-31T06:44:32.864Z,10.07
2022-07-31T06:47:20.965Z,10.98
2022-07-31T06:50:07.950Z,10.40
2022-07-31T06:52:40.292Z,9.98
2022-07-31T06:55:09.883Z,10.25
2022-07-31T06:57:40.347Z,10.50
2022-07-31T07:00:19.494Z,8.77
2022-07-31T07:02:49.745Z,7.72
2022-07-31T07:05:18.692Z,9.13
2022-07-31T07:07:51.359Z,8.48
2022-07-31T07:10:19.915Z,7.10
2022-07-31T07:13:02.917Z,7.95
2022-07-31T07:15:36.159Z,8.00
2022-07-31T07:18:05.536Z,7.82
2022-07-31T07:20:38.108Z,8.63
2022-07-31T07:23:06.934Z,9.23
2022-07-31T07:25:54.451Z,8.40
2022-07-31T07:28:30.960Z,8.80
2022-07-31T07:31:05.090Z,9.95
2022-07-31T07:33:39.981Z,9.50
2022-07-31T07:36:23.736Z,9.20
2022-07-31T07:39:06.229Z,10.50
2022-07-31T07:41:38.605Z,9.88
2022-07-31T07:44:09.482Z,10.02
2022-07-31T07:46:39.198Z,8.85
2022-07-31T07:49:09.617Z,10.00
2022-07-31T07:52:09.710Z,9.07
2022-07-31T07:54:41.020Z,22.92
2022-07-31T07:57:48.183Z,27.15
2022-07-31T08:00:43.849Z,25.50
2022-07-31T08:03:49.213Z,28.08
2022-07-31T08:06:02.589Z,16.95
2022-07-31T08:08:31.194Z,15.85
2022-07-31T08:11:17.466Z,20.77
2022-07-31T08:14:07.341Z,35.63
2022-07-31T08:16:46.102Z,36.28
2022-07-31T08:19:14.804Z,17.95
2022-07-31T08:21:43.329Z,13.82
2022-07-31T08:24:12.564Z,14.65
2022-07-31T08:26:58.781Z,12.77
2022-07-31T08:29:28.959Z,10.10
2022-07-31T08:32:15.434Z,13.38
2022-07-31T08:35:10.632Z,7.97
2022-07-31T08:37:50.797Z,8.18
2022-07-31T08:40:31.477Z,8.20
2022-07-31T08:43:19.426Z,8.48
2022-07-31T08:45:55.067Z,8.27
2022-07-31T08:48:33.682Z,8.68
2022-07-31T08:51:04.452Z,9.35
2022-07-31T08:53:57.378Z,8.63
2022-07-31T08:56:28.050Z,8.80
2022-07-31T08:58:57.453Z,9.20
2022-07-31T09:01:26.162Z,8.23
2022-07-31T09:03:57.804Z,7.82
2022-07-31T09:06:27.200Z,7.90
2022-07-31T09:08:57.533Z,6.70
2022-07-31T09:11:26.151Z,6.75
2022-07-31T09:14:28.017Z,6.53
2022-07-31T09:16:57.453Z,6.63
2022-07-31T09:19:51.655Z,6.97
2022-07-31T09:22:27.093Z,7.75
2022-07-31T09:25:08.787Z,7.03
2022-07-31T09:27:37.273Z,7.18
2022-07-31T09:30:08.127Z,7.72
2022-07-31T09:32:54.798Z,7.00
2022-07-31T09:35:48.107Z,7.32
2022-07-31T09:38:16.967Z,7.95
2022-07-31T09:41:56.949Z,7.15
2022-07-31T09:44:37.164Z,6.47
2022-07-31T09:47:06.812Z,6.80
2022-07-31T09:49:36.324Z,7.53
2022-07-31T09:52:06.589Z,6.45
2022-07-31T09:54:35.389Z,6.50
2022-07-31T09:57:13.215Z,7.15
2022-07-31T09:59:55.137Z,6.53
2022-07-31T10:02:27.389Z,6.75
2022-07-31T10:04:59.109Z,6.93
2022-07-31T10:07:35.802Z,6.28
2022-07-31T10:10:15.499Z,6.82
2022-07-31T10:13:07.764Z,6.20
2022-07-31T10:15:38.497Z,6.38
2022-07-31T10:18:48.378Z,6.20
2022-07-31T10:21:42.403Z,6.82
2022-07-31T10:24:28.105Z,5.88
2022-07-31T10:27:01.629Z,6.32
2022-07-31T10:29:33.413Z,6.10
2022-07-31T10:32:06.517Z,5.22
2022-07-31T10:34:39.001Z,5.60
2022-07-31T10:37:36.106Z,6.35
2022-07-31T10:40:27.767Z,5.68
2022-07-31T10:43:18.284Z,5.72
2022-07-31T10:45:56.082Z,5.15
2022-07-31T10:48:40.143Z,5.43
2022-07-31T10:51:31.840Z,5.22
2022-07-31T10:54:07.702Z,5.45
2022-07-31T10:56:56.501Z,4.93
2022-07-31T10:59:57.737Z,5.60
2022-07-31T11:02:55.714Z,5.47
2022-07-31T11:05:31.363Z,5.35
2022-07-31T11:08:43.475Z,5.13
2022-07-31T11:11:36.815Z,5.07
2022-07-31T11:14:38.989Z,5.53
2022-07-31T11:18:25.267Z,4.97
2022-07-31T11:20:28.504Z,4.85
2022-07-31T11:23:00.653Z,4.82
2022-07-31T11:25:32.493Z,4.70
2022-07-31T11:28:12.818Z,4.32
2022-07-31T11:30:54.524Z,4.22
2022-07-31T11:33:42.014Z,4.35
2022-07-31T11:36:16.505Z,4.40
2022-07-31T11:38:47.568Z,4.68
2022-07-31T11:41:16.798Z,4.03
2022-07-31T11:43:47.231Z,3.80
2022-07-31T11:46:26.292Z,4.13
2022-07-31T11:48:57.186Z,3.60
2022-07-31T11:51:26.954Z,3.58
2022-07-31T11:53:57.792Z,3.58
2022-07-31T11:56:28.376Z,3.70
2022-07-31T11:58:58.487Z,3.30
2022-07-31T12:01:29.834Z,2.95
2022-07-31T12:04:01.694Z,3.28
2022-07-31T12:06:39.373Z,3.00
2022-07-31T12:09:08.039Z,3.10
2022-07-31T12:11:56.777Z,3.25
2022-07-31T12:14:32.459Z,3.10
2022-07-31T12:17:04.709Z,3.05
2022-07-31T12:19:37.535Z,3.05
2022-07-31T12:22:14.687Z,2.67
2022-07-31T12:24:43.212Z,2.83
2022-07-31T12:27:16.166Z,2.97
2022-07-31T12:29:45.258Z,2.80
2022-07-31T12:32:25.791Z,2.92
2022-07-31T12:35:02.938Z,2.70
2022-07-31T12:37:32.327Z,2.55
2022-07-31T12:40:01.701Z,2.35
2022-07-31T12:42:40.843Z,3.10
2022-07-31T12:45:18.085Z,2.97
2022-07-31T12:47:54.518Z,2.80
2022-07-31T12:50:23.366Z,2.75
2022-07-31T12:52:51.868Z,2.65
2022-07-31T12:55:20.954Z,2.45
2022-07-31T12:57:51.728Z,1.92
2022-07-31T13:00:23.029Z,1.90
2022-07-31T13:02:54.661Z,2.05
2022-07-31T13:05:24.479Z,2.08
2022-07-31T13:07:53.500Z,1.92
2022-07-31T13:10:24.742Z,1.98
2022-07-31T13:12:54.324Z,1.98
2022-07-31T13:15:29.930Z,2.55
2022-07-31T13:18:03.364Z,1.80
2022-07-31T13:20:32.284Z,1.63
2022-07-31T13:23:02.516Z,1.88
2022-07-31T13:25:31.687Z,1.70
2022-07-31T13:28:00.672Z,1.88
2022-07-31T13:30:29.655Z,1.58
2022-07-31T13:32:59.628Z,1.10
2022-07-31T13:35:29.182Z,1.30
2022-07-31T13:37:58.307Z,1.45
2022-07-31T13:40:41.116Z,1.20
2022-07-31T13:43:09.818Z,1.27
2022-07-31T13:45:38.540Z,1.30
2022-07-31T13:48:09.902Z,1.50
2022-07-31T13:50:39.818Z,1.27
2022-07-31T13:53:09.113Z,1.17
2022-07-31T13:55:39.353Z,1.50
2022-07-31T13:58:08.699Z,1.15
2022-07-31T14:00:37.344Z,1.10
2022-07-31T14:03:05.913Z,1.50
2022-07-31T14:05:40.004Z,1.38
2022-07-31T14:08:32.816Z,1.50
2022-07-31T14:10:58.012Z,1.42
2022-07-31T14:13:27.057Z,1.30
2022-07-31T14:15:55.936Z,1.20
2022-07-31T14:18:24.839Z,1.35
2022-07-31T14:20:54.884Z,1.65
2022-07-31T14:23:34.066Z,1.42
2022-07-31T14:26:05.256Z,1.10
2022-07-31T14:28:33.865Z,1.33
2022-07-31T14:31:02.682Z,1.35
2022-07-31T14:33:31.330Z,1.25
2022-07-31T14:36:01.355Z,1.65
2022-07-31T14:38:30.108Z,1.58
2022-07-31T14:40:58.619Z,1.60
2022-07-31T14:43:27.157Z,1.42
2022-07-31T14:45:58.133Z,1.17
2022-07-31T14:48:27.421Z,1.30
2022-07-31T14:50:56.354Z,1.50
2022-07-31T14:53:26.127Z,1.75
2022-07-31T14:55:54.840Z,1.38
2022-07-31T14:58:32.473Z,1.48
2022-07-31T15:01:23.635Z,1.60
2022-07-31T15:03:55.375Z,1.45
2022-07-31T15:06:39.696Z,1.83
2022-07-31T15:09:14.984Z,1.58
2022-07-31T15:12:00.382Z,1.60
2022-07-31T15:14:30.603Z,1.55
2022-07-31T15:16:59.399Z,1.63
2022-07-31T15:19:28.096Z,1.48
2022-07-31T15:22:11.156Z,1.50
2022-07-31T15:24:48.851Z,1.52
2022-07-31T15:27:19.074Z,1.60
2022-07-31T15:30:03.979Z,1.30
2022-07-31T15:32:37.061Z,1.30
2022-07-31T15:35:06.472Z,1.10
2022-07-31T15:37:36.631Z,1.45
2022-07-31T15:40:11.951Z,1.95
2022-07-31T15:42:42.992Z,1.55
2022-07-31T15:45:13.781Z,1.60
2022-07-31T15:47:43.158Z,1.35
2022-07-31T15:50:13.186Z,1.40
2022-07-31T15:52:42.736Z,1.52
2022-07-31T15:55:12.782Z,1.30
2022-07-31T15:57:41.449Z,1.40
2022-07-31T16:00:12.193Z,1.42
2022-07-31T16:02:42.528Z,1.52
2022-07-31T16:05:21.534Z,1.30
2022-07-31T16:08:31.806Z,1.58
2022-07-31T16:10:54.423Z,1.50
2022-07-31T16:13:24.052Z,1.50
2022-07-31T16:15:52.762Z,1.48
2022-07-31T16:18:21.616Z,1.65
2022-07-31T16:20:50.131Z,1.60
2022-07-31T16:23:18.804Z,1.65
2022-07-31T16:25:47.625Z,1.58
2022-07-31T16:28:17.505Z,1.63
2022-07-31T16:30:46.835Z,1.55
2022-07-31T16:33:15.779Z,1.40
2022-07-31T16:35:44.459Z,1.35
2022-07-31T16:38:13.062Z,1.42
2022-07-31T16:40:41.681Z,1.75
2022-07-31T16:43:49.489Z,1.80
2022-07-31T16:46:00.278Z,1.40
2022-07-31T16:48:28.907Z,1.70
2022-07-31T16:50:57.395Z,1.58
2022-07-31T16:54:13.908Z,1.60
2022-07-31T16:56:16.270Z,1.13
2022-07-31T16:58:45.099Z,1.67
2022-07-31T17:01:58.350Z,1.65
2022-07-31T17:04:04.736Z,1.75
2022-07-31T17:06:37.295Z,1.83
2022-07-31T17:09:17.373Z,1.40
2022-07-31T17:11:48.572Z,1.50
2022-07-31T17:14:18.963Z,1.23
2022-07-31T17:16:50.976Z,1.60
2022-07-31T17:19:42.698Z,1.33
2022-07-31T17:22:11.187Z,1.60
2022-07-31T17:24:40.582Z,1.50
2022-07-31T17:27:10.216Z,1.50
2022-07-31T17:29:39.603Z,1.42
2022-07-31T17:32:11.046Z,1.63
2022-07-31T17:34:40.391Z,1.85
2022-07-31T17:37:09.491Z,1.63
2022-07-31T17:39:38.378Z,1.70
2022-07-31T17:42:09.326Z,1.50
2022-07-31T17:44:38.237Z,1.80
2022-07-31T17:47:10.445Z,1.73
2022-07-31T17:49:39.130Z,1.88
2022-07-31T17:52:08.391Z,2.00
2022-07-31T17:54:37.271Z,1.65
2022-07-31T17:57:06.415Z,1.55
2022-07-31T17:59:34.865Z,1.90
2022-07-31T18:02:04.781Z,1.92
2022-07-31T18:04:37.845Z,1.75
2022-07-31T18:07:08.307Z,1.77
2022-07-31T18:09:37.602Z,1.60
2022-07-31T18:12:08.205Z,2.13
2022-07-31T18:14:39.885Z,2.03
2022-07-31T18:17:08.566Z,1.80
2022-07-31T18:19:38.596Z,1.88
2022-07-31T18:22:07.589Z,1.70
2022-07-31T18:24:36.414Z,2.25
2022-07-31T18:27:07.627Z,2.40
2022-07-31T18:29:36.161Z,2.08
2022-07-31T18:32:05.529Z,2.00
2022-07-31T18:34:34.343Z,1.90
2022-07-31T18:37:04.219Z,1.60
2022-07-31T18:39:32.895Z,1.90
2022-07-31T18:42:17.801Z,2.15
2022-07-31T18:44:46.292Z,2.15
2022-07-31T18:47:15.373Z,2.28
2022-07-31T18:50:58.654Z,2.40
2022-07-31T18:52:33.948Z,2.00
2022-07-31T18:55:02.500Z,2.17
2022-07-31T18:57:31.761Z,2.10
2022-07-31T19:00:00.237Z,2.55
2022-07-31T19:02:29.337Z,2.15
2022-07-31T19:04:58.687Z,2.20
2022-07-31T19:07:28.566Z,2.20
2022-07-31T19:09:58.454Z,2.13
2022-07-31T19:12:27.162Z,2.53
2022-07-31T19:14:55.655Z,1.67
2022-07-31T19:17:24.283Z,2.55
2022-07-31T19:20:13.791Z,2.20
2022-07-31T19:23:01.965Z,2.20
2022-07-31T19:26:02.005Z,2.45
2022-07-31T19:28:22.925Z,2.40
2022-07-31T19:30:55.933Z,2.30
2022-07-31T19:33:24.916Z,2.60
2022-07-31T19:35:58.932Z,2.45
2022-07-31T19:38:29.754Z,2.47
2022-07-31T19:40:59.663Z,2.40
2022-07-31T19:43:28.589Z,2.28
2022-07-31T19:46:09.712Z,2.60
2022-07-31T19:48:43.734Z,2.38
2022-07-31T19:51:13.723Z,2.95
2022-07-31T19:53:42.773Z,2.50
2022-07-31T19:56:18.320Z,2.50
2022-07-31T19:58:49.362Z,2.60
2022-07-31T20:01:20.426Z,2.30
2022-07-31T20:03:49.267Z,2.70
2022-07-31T20:06:17.926Z,2.40
2022-07-31T20:08:46.628Z,2.78
2022-07-31T20:11:17.331Z,2.20
2022-07-31T20:13:45.924Z,2.38
2022-07-31T20:16:15.267Z,2.90
2022-07-31T20:18:44.211Z,2.50
2022-07-31T20:21:12.729Z,2.58
2022-07-31T20:23:41.971Z,2.70
2022-07-31T20:26:13.871Z,2.60
2022-07-31T20:28:44.438Z,2.60
2022-07-31T20:31:16.028Z,3.00
2022-07-31T20:33:57.409Z,2.60
2022-07-31T20:36:27.037Z,2.90
2022-07-31T20:38:57.432Z,2.80
2022-07-31T20:41:27.405Z,2.67
2022-07-31T20:43:57.250Z,3.20
2022-07-31T20:46:25.916Z,2.97
2022-07-31T20:48:54.440Z,3.15
2022-07-31T20:51:23.390Z,3.15
2022-07-31T20:53:52.430Z,3.53
2022-07-31T20:56:21.050Z,3.08
2022-07-31T20:58:51.776Z,3.33
2022-07-31T21:01:23.207Z,3.05
2022-07-31T21:03:51.789Z,3.72
2022-07-31T21:06:21.099Z,3.42
2022-07-31T21:08:50.060Z,3.33
2022-07-31T21:11:20.184Z,3.45
2022-07-31T21:13:48.933Z,3.78
2022-07-31T21:16:18.994Z,3.90
2022-07-31T21:18:50.743Z,3.45
2022-07-31T21:21:19.259Z,3.75
2022-07-31T21:23:47.860Z,3.67
2022-07-31T21:26:17.150Z,4.60
2022-07-31T21:28:46.542Z,3.75
2022-07-31T21:31:17.511Z,3.63
2022-07-31T21:33:46.943Z,3.90
2022-07-31T21:36:17.246Z,4.20
2022-07-31T21:38:46.342Z,4.30
2022-07-31T21:41:16.544Z,4.40
2022-07-31T21:43:58.859Z,4.20
2022-07-31T21:46:30.025Z,4.25
2022-07-31T21:48:58.865Z,4.00
2022-07-31T21:51:29.227Z,4.22
2022-07-31T21:53:57.709Z,4.20
2022-07-31T21:56:27.101Z,5.45
2022-07-31T21:58:55.550Z,5.30
2022-07-31T22:01:24.241Z,4.90
2022-07-31T22:03:52.691Z,5.40
2022-07-31T22:06:38.495Z,5.07
2022-07-31T22:09:08.329Z,5.47
2022-07-31T22:11:36.881Z,5.28
2022-07-31T22:14:05.451Z,5.00
2022-07-31T22:16:33.869Z,5.63
2022-07-31T22:19:02.962Z,4.68
2022-07-31T22:21:31.829Z,5.20
2022-07-31T22:24:00.814Z,5.40
2022-07-31T22:26:31.207Z,5.45
2022-07-31T22:29:00.524Z,6.10
2022-07-31T22:31:29.344Z,5.88
2022-07-31T22:33:58.047Z,6.22
2022-07-31T22:36:27.898Z,5.85
2022-07-31T22:38:57.374Z,5.70
2022-07-31T22:41:25.943Z,6.25
2022-07-31T22:44:13.791Z,5.72
2022-07-31T22:46:43.831Z,16.83
2022-07-31T22:49:13.820Z,6.95
2022-07-31T22:51:46.381Z,6.93
2022-07-31T22:54:15.498Z,8.52
2022-07-31T22:56:43.923Z,7.95
2022-07-31T22:59:13.779Z,7.63
2022-07-31T23:01:42.315Z,6.97
2022-07-31T23:04:10.842Z,6.97
2022-07-31T23:06:39.288Z,6.60
2022-07-31T23:09:07.725Z,7.85
2022-07-31T23:11:36.235Z,8.05
2022-07-31T23:14:04.831Z,8.60
2022-07-31T23:16:34.886Z,8.93
2022-07-31T23:19:03.481Z,8.43
2022-07-31T23:21:31.904Z,9.57
2022-07-31T23:24:00.431Z,14.27
2022-07-31T23:26:29.130Z,20.70
2022-07-31T23:28:58.226Z,29.70
2022-07-31T23:31:26.667Z,43.25
2022-07-31T23:33:56.534Z,19.95
2022-07-31T23:36:25.015Z,17.48
2022-07-31T23:38:53.464Z,8.10
2022-07-31T23:41:35.799Z,9.13
2022-07-31T23:44:04.997Z,15.63
2022-07-31T23:46:33.467Z,14.18
2022-07-31T23:49:04.337Z,9.48
2022-07-31T23:51:32.895Z,7.70
2022-07-31T23:54:05.530Z,9.43
2022-07-31T23:56:34.029Z,11.27
2022-07-31T23:59:02.553Z,18.67
